createdAt,value
2023-03-20T00:00:29.281Z,18.70
2023-03-20T00:05:32.431Z,18.50
2023-03-20T00:10:40.673Z,15.32
2023-03-20T00:15:44.668Z,14.85
2023-03-20T00:20:47.799Z,15.15
2023-03-20T00:25:50.642Z,13.80
2023-03-20T00:30:52.714Z,18.75
2023-03-20T00:35:54.875Z,16.38
2023-03-20T00:40:57.056Z,13.80
2023-03-20T00:45:59.226Z,16.95
2023-03-20T00:51:01.933Z,13.70
2023-03-20T00:56:04.781Z,15.23
2023-03-20T01:01:07.233Z,16.00
2023-03-20T01:06:10.221Z,14.63
2023-03-20T01:11:14.631Z,16.50
2023-03-20T01:16:25.625Z,13.18
2023-03-20T01:21:27.822Z,13.88
2023-03-20T01:26:36.959Z,14.05
2023-03-20T01:31:39.183Z,14.00
2023-03-20T01:36:49.494Z,11.98
2023-03-20T01:41:53.439Z,13.18
2023-03-20T01:46:55.900Z,14.15
2023-03-20T01:51:58.382Z,13.07
2023-03-20T01:57:01.555Z,15.07
2023-03-20T02:02:06.173Z,13.73
2023-03-20T02:07:11.341Z,12.77
2023-03-20T02:12:13.780Z,14.20
2023-03-20T02:17:16.444Z,12.98
2023-03-20T02:22:34.365Z,11.55
2023-03-20T02:28:08.489Z,13.73
2023-03-20T02:33:29.126Z,11.38
2023-03-20T02:44:03.492Z,13.68
2023-03-20T02:49:40.805Z,12.35
2023-03-20T02:55:29.891Z,13.45
2023-03-20T03:00:39.941Z,11.25
2023-03-20T03:05:51.436Z,16.17
2023-03-20T03:10:58.384Z,12.00
2023-03-20T03:16:06.491Z,11.68
2023-03-20T03:21:11.398Z,9.05
2023-03-20T03:26:21.734Z,9.55
2023-03-20T03:31:26.376Z,14.57
2023-03-20T03:36:41.670Z,9.02
2023-03-20T03:41:52.577Z,10.27
2023-03-20T03:47:06.714Z,9.32
2023-03-20T03:52:23.346Z,20.27
2023-03-20T03:57:33.523Z,12.32
2023-03-20T04:02:36.416Z,13.02
2023-03-20T04:07:39.476Z,15.57
2023-03-20T04:12:45.269Z,19.58
2023-03-20T04:17:47.793Z,9.93
2023-03-20T04:22:50.080Z,14.13
2023-03-20T04:27:52.668Z,15.02
2023-03-20T04:32:54.744Z,10.23
2023-03-20T04:37:56.886Z,13.70
2023-03-20T04:42:59.062Z,13.35
2023-03-20T04:48:01.380Z,23.17
2023-03-20T04:53:03.524Z,21.17
2023-03-20T04:58:06.145Z,14.30
2023-03-20T05:03:09.219Z,12.52
2023-03-20T05:08:11.514Z,12.48
2023-03-20T05:13:14.269Z,11.68
2023-03-20T05:18:17.230Z,21.08
2023-03-20T05:23:20.257Z,26.33
2023-03-20T05:28:22.448Z,22.25
2023-03-20T05:33:24.653Z,19.08
2023-03-20T05:38:27.719Z,25.58
2023-03-20T05:43:30.309Z,27.85
2023-03-20T05:48:32.415Z,29.63
2023-03-20T05:53:35.189Z,24.52
2023-03-20T05:58:37.371Z,23.23
2023-03-20T06:03:39.571Z,26.30
2023-03-20T06:08:42.244Z,40.08
2023-03-20T06:13:44.417Z,25.98
2023-03-20T06:18:47.171Z,28.92
2023-03-20T06:23:49.394Z,23.83
2023-03-20T06:28:51.870Z,25.70
2023-03-20T06:33:54.090Z,27.63
2023-03-20T06:38:57.322Z,20.55
2023-03-20T06:44:00.047Z,27.75
2023-03-20T06:49:03.109Z,24.55
2023-03-20T06:54:06.050Z,28.95
2023-03-20T06:59:08.265Z,23.80
2023-03-20T07:04:11.050Z,30.45
2023-03-20T07:09:13.287Z,40.00
2023-03-20T07:14:15.905Z,23.30
2023-03-20T07:19:19.777Z,24.52
2023-03-20T07:24:22.295Z,21.90
2023-03-20T07:29:24.540Z,17.08
2023-03-20T07:34:27.067Z,13.07
2023-03-20T07:39:30.055Z,15.48
2023-03-20T07:44:33.017Z,16.67
2023-03-20T07:49:35.664Z,20.75
2023-03-20T07:54:37.801Z,14.25
2023-03-20T07:59:40.023Z,13.20
2023-03-20T08:04:43.864Z,11.82
2023-03-20T08:09:46.822Z,15.82
2023-03-20T08:14:49.063Z,14.48
2023-03-20T08:19:51.989Z,15.35
2023-03-20T08:24:54.135Z,11.50
2023-03-20T08:29:56.934Z,12.55
2023-03-20T08:35:00.005Z,13.38
2023-03-20T08:40:02.335Z,13.65
2023-03-20T08:45:05.137Z,9.68
2023-03-20T08:50:07.802Z,13.48
2023-03-20T08:55:12.362Z,10.05
2023-03-20T09:00:16.880Z,10.27
2023-03-20T09:05:19.341Z,9.35
2023-03-20T09:10:21.645Z,8.23
2023-03-20T09:15:23.815Z,7.88
2023-03-20T09:20:26.092Z,9.98
2023-03-20T09:25:28.260Z,8.40
2023-03-20T09:30:30.546Z,9.77
2023-03-20T09:35:32.785Z,18.90
2023-03-20T09:40:53.182Z,9.48
2023-03-20T09:46:20.900Z,9.43
2023-03-20T09:51:36.611Z,8.60
2023-03-20T09:56:38.988Z,8.13
2023-03-20T10:01:52.419Z,10.70
2023-03-20T10:06:55.803Z,14.93
2023-03-20T10:12:21.092Z,12.15
2023-03-20T10:17:39.283Z,9.43
2023-03-20T10:23:04.346Z,10.23
2023-03-20T10:28:23.550Z,10.07
2023-03-20T10:33:37.908Z,9.40
2023-03-20T10:38:58.116Z,14.10
2023-03-20T10:44:06.239Z,10.23
2023-03-20T10:49:20.157Z,11.35
2023-03-20T10:54:30.745Z,6.63
2023-03-20T10:59:39.241Z,5.95
2023-03-20T11:04:41.654Z,5.15
2023-03-20T11:09:43.926Z,5.10
2023-03-20T11:14:46.601Z,5.55
2023-03-20T11:19:51.838Z,7.47
2023-03-20T11:25:01.922Z,5.85
2023-03-20T11:30:07.889Z,6.40
2023-03-20T11:35:26.533Z,4.85
2023-03-20T11:40:33.794Z,4.60
2023-03-20T11:45:46.022Z,5.72
2023-03-20T11:50:57.314Z,3.42
2023-03-20T11:56:04.913Z,3.38
2023-03-20T12:01:13.513Z,3.80
2023-03-20T12:06:22.092Z,3.63
2023-03-20T12:11:48.236Z,4.30
2023-03-20T12:16:56.414Z,3.05
2023-03-20T12:22:22.628Z,5.70
2023-03-20T12:27:34.717Z,6.07
2023-03-20T12:32:43.671Z,4.03
2023-03-20T12:37:45.999Z,4.90
2023-03-20T12:42:58.320Z,2.72
2023-03-20T12:48:34.702Z,4.15
2023-03-20T12:54:04.384Z,2.33
2023-03-20T13:04:25.697Z,3.40
2023-03-20T13:09:49.450Z,2.45
2023-03-20T13:14:55.200Z,4.43
2023-03-20T13:20:30.327Z,3.55
2023-03-20T13:25:57.853Z,2.30
2023-03-20T13:31:18.231Z,2.08
2023-03-20T13:36:58.827Z,3.58
2023-03-20T13:42:06.970Z,3.78
2023-03-20T13:47:22.378Z,2.60
2023-03-20T13:52:29.558Z,2.60
2023-03-20T13:58:07.614Z,2.70
2023-03-20T14:03:26.541Z,3.88
2023-03-20T14:08:28.624Z,3.45
2023-03-20T14:13:31.421Z,3.28
2023-03-20T14:18:33.752Z,5.25
2023-03-20T14:23:39.160Z,3.40
2023-03-20T14:28:58.312Z,3.30
2023-03-20T14:39:38.672Z,4.80
2023-03-20T14:44:59.691Z,3.63
2023-03-20T14:50:02.005Z,3.38
2023-03-20T14:55:22.835Z,3.50
2023-03-20T15:00:33.820Z,5.38
2023-03-20T15:05:39.192Z,4.10
2023-03-20T15:10:54.521Z,3.28
2023-03-20T15:16:16.960Z,4.35
2023-03-20T15:21:39.300Z,4.20
2023-03-20T15:26:41.459Z,5.40
2023-03-20T15:31:43.714Z,3.50
2023-03-20T15:36:46.439Z,8.18
2023-03-20T15:41:59.307Z,5.28
2023-03-20T15:47:10.494Z,4.45
2023-03-20T15:52:22.198Z,5.82
2023-03-20T15:57:35.930Z,7.05
2023-03-20T16:02:38.400Z,4.72
2023-03-20T16:07:41.353Z,7.78
2023-03-20T16:12:52.271Z,9.32
2023-03-20T16:17:58.618Z,9.27
2023-03-20T16:23:04.369Z,8.02
2023-03-20T16:28:08.413Z,7.60
2023-03-20T16:33:16.222Z,9.70
2023-03-20T16:38:29.588Z,8.40
2023-03-20T16:43:32.716Z,8.95
2023-03-20T16:48:39.789Z,6.47
2023-03-20T16:53:46.669Z,10.88
2023-03-20T16:58:49.689Z,8.52
2023-03-20T17:03:57.361Z,10.00
2023-03-20T17:09:16.233Z,8.52
2023-03-20T17:14:18.821Z,9.57
2023-03-20T17:19:21.920Z,11.50
2023-03-20T17:24:24.126Z,13.13
2023-03-20T17:29:26.366Z,14.50
2023-03-20T17:34:29.061Z,15.30
2023-03-20T17:39:31.232Z,12.88
2023-03-20T17:44:33.559Z,12.98
2023-03-20T17:49:36.174Z,17.02
2023-03-20T17:54:38.305Z,10.20
2023-03-20T17:59:41.210Z,10.80
2023-03-20T18:04:43.434Z,14.95
2023-03-20T18:09:46.570Z,13.10
2023-03-20T18:14:48.729Z,11.35
2023-03-20T18:19:50.889Z,13.90
2023-03-20T18:24:53.218Z,14.50
2023-03-20T18:29:55.482Z,11.45
2023-03-20T18:34:57.694Z,14.35
2023-03-20T18:40:01.293Z,15.43
2023-03-20T18:45:03.571Z,15.30
2023-03-20T18:50:07.217Z,17.90
2023-03-20T18:55:09.593Z,14.45
2023-03-20T19:00:24.244Z,13.35
2023-03-20T19:05:28.217Z,15.65
2023-03-20T19:10:36.583Z,16.35
2023-03-20T19:15:39.109Z,14.57
2023-03-20T19:20:43.883Z,17.20
2023-03-20T19:25:48.706Z,16.13
2023-03-20T19:30:52.378Z,16.63
2023-03-20T19:36:02.947Z,14.60
2023-03-20T19:41:09.148Z,18.95
2023-03-20T19:46:28.509Z,15.07
2023-03-20T19:51:39.221Z,13.93
2023-03-20T19:56:41.404Z,17.25
2023-03-20T20:01:43.596Z,14.65
2023-03-20T20:06:47.524Z,20.73
2023-03-20T20:11:49.768Z,17.35
2023-03-20T20:16:53.826Z,20.25
2023-03-20T20:22:20.130Z,21.30
2023-03-20T20:27:19.186Z,22.85
2023-03-20T20:32:23.930Z,18.35
2023-03-20T20:38:10.362Z,13.35
2023-03-20T20:42:51.932Z,16.40
2023-03-20T20:47:55.560Z,24.20
2023-03-20T20:52:59.999Z,15.52
2023-03-20T20:58:05.007Z,17.05
2023-03-20T21:03:07.999Z,22.75
2023-03-20T21:08:10.402Z,20.08
2023-03-20T21:13:13.215Z,10.75
2023-03-20T21:18:15.508Z,11.82
2023-03-20T21:23:18.071Z,15.50
2023-03-20T21:28:20.648Z,6.15
2023-03-20T21:33:22.911Z,8.43
2023-03-20T21:43:48.386Z,12.07
2023-03-20T21:49:40.159Z,27.60
2023-03-20T22:11:19.983Z,14.15
2023-03-20T22:21:42.834Z,18.17
2023-03-20T22:27:18.696Z,13.05
2023-03-20T22:32:35.011Z,13.73
2023-03-20T22:43:15.084Z,10.18
2023-03-20T22:47:57.010Z,13.25
2023-03-20T22:52:59.215Z,10.38
2023-03-20T22:58:08.027Z,9.18
2023-03-20T23:03:22.317Z,9.15
2023-03-20T23:08:36.107Z,10.70
2023-03-20T23:13:41.920Z,9.63
2023-03-20T23:18:44.854Z,8.05
2023-03-20T23:23:47.086Z,7.97
2023-03-20T23:28:53.578Z,11.35
2023-03-20T23:33:57.775Z,11.50
2023-03-20T23:38:59.922Z,9.80
2023-03-20T23:44:02.474Z,10.30
2023-03-20T23:49:06.105Z,11.55
2023-03-20T23:54:08.307Z,11.68
